Time;durP1;ratioP1;P1;durP2;ratioP2;P2;SDS_P1;SDS_P2;PMS_P1;PMS_P2;Temp;Humidity;BMP_temperature;BMP_pressure;BME280_temperature;BME280_humidity;BME280_pressure;Samples;Min_cycle;Max_cycle;Signal;HPM_P1;HPM_P2
2021/07/30 04:02:29;;;;;;;6.23;5.83;;;13.90;99.90;;;;;;5003421;23;20326;-73
2021/07/30 04:04:56;;;;;;;7.70;5.70;;;13.90;99.90;;;;;;4918420;29;20513;-73
2021/07/30 04:07:22;;;;;;;5.80;5.20;;;13.90;99.90;;;;;;4917308;29;20474;-73
2021/07/30 04:09:49;;;;;;;6.33;5.73;;;13.90;99.90;;;;;;4915368;29;20215;-73
2021/07/30 04:12:16;;;;;;;5.63;5.13;;;13.90;99.90;;;;;;4907532;29;20505;-73
2021/07/30 04:14:42;;;;;;;8.13;5.93;;;14.00;99.90;;;;;;4917182;29;20474;-73
2021/07/30 04:17:10;;;;;;;5.77;5.20;;;14.00;99.90;;;;;;4917559;29;20466;-73
2021/07/30 04:19:43;;;;;;;5.57;5.27;;;14.00;99.90;;;;;;4918039;29;20466;-73
2021/07/30 04:22:10;;;;;;;7.00;6.40;;;14.10;99.90;;;;;;4917854;29;20497;-73
2021/07/30 04:24:36;;;;;;;6.23;5.83;;;14.10;99.90;;;;;;4917359;29;20470;-73
2021/07/30 04:27:03;;;;;;;11.73;6.47;;;14.10;99.90;;;;;;4917981;29;20848;-72
2021/07/30 04:29:30;;;;;;;6.10;5.70;;;14.20;99.90;;;;;;4917958;29;20815;-72
2021/07/30 04:31:56;;;;;;;9.40;5.60;;;14.20;99.90;;;;;;4917972;29;20538;-70
2021/07/30 04:34:23;;;;;;;6.70;6.10;;;14.30;99.90;;;;;;4917475;29;20521;-72
2021/07/30 04:36:51;;;;;;;7.13;5.40;;;14.30;99.90;;;;;;4917379;29;20943;-72
2021/07/30 04:39:18;;;;;;;6.60;6.10;;;14.40;99.90;;;;;;4918149;29;20458;-73
2021/07/30 04:41:44;;;;;;;5.30;4.90;;;14.80;99.90;;;;;;4918193;29;20992;-74
2021/07/30 04:44:11;;;;;;;5.00;4.70;;;15.50;99.90;;;;;;4917987;29;20539;-74
2021/07/30 04:46:37;;;;;;;5.40;4.13;;;16.20;99.90;;;;;;4918648;29;20514;-73
2021/07/30 04:49:04;;;;;;;7.40;4.80;;;16.90;99.90;;;;;;4919317;29;20810;-72
2021/07/30 04:51:31;;;;;;;5.30;4.87;;;17.50;99.90;;;;;;4918325;29;21027;-71
2021/07/30 04:53:59;;;;;;;5.20;4.53;;;18.00;99.90;;;;;;4918186;29;20956;-72
2021/07/30 04:56:25;;;;;;;6.60;4.40;;;18.30;99.90;;;;;;4918893;29;20478;-71
2021/07/30 04:58:52;;;;;;;6.20;4.90;;;18.50;99.90;;;;;;4917408;29;20877;-71
2021/07/30 05:01:19;;;;;;;4.53;4.07;;;18.90;99.90;;;;;;4912918;29;21021;-72
2021/07/30 05:03:45;;;;;;;5.83;5.43;;;19.00;99.90;;;;;;4919320;29;20466;-71
2021/07/30 05:06:14;;;;;;;4.50;3.57;;;19.30;99.90;;;;;;4918065;29;20554;-71
2021/07/30 05:08:40;;;;;;;4.80;4.40;;;19.40;99.90;;;;;;4919007;29;20474;-72
2021/07/30 05:11:10;;;;;;;4.23;4.00;;;19.50;99.90;;;;;;4919934;29;20598;-73
2021/07/30 05:13:37;;;;;;;3.80;3.50;;;19.60;99.90;;;;;;4920061;29;20473;-72
2021/07/30 05:16:06;;;;;;;5.00;4.53;;;20.00;99.90;;;;;;4918263;29;20490;-73
2021/07/30 05:18:32;;;;;;;4.43;4.10;;;20.30;99.90;;;;;;4918850;29;20485;-74
2021/07/30 05:20:59;;;;;;;4.40;4.00;;;20.10;99.90;;;;;;4918632;29;20479;-73
2021/07/30 05:23:26;;;;;;;5.07;4.67;;;19.80;99.90;;;;;;4920043;29;20466;-73
2021/07/30 05:25:53;;;;;;;5.37;4.40;;;19.40;99.90;;;;;;4919616;29;20490;-73
2021/07/30 05:28:21;;;;;;;5.67;5.17;;;18.80;99.90;;;;;;4921637;29;20836;-72
2021/07/30 05:30:48;;;;;;;6.23;5.57;;;18.60;99.90;;;;;;4920818;29;20490;-74
2021/07/30 05:33:14;;;;;;;5.30;4.77;;;18.20;99.90;;;;;;4924434;29;20495;-72
2021/07/30 05:35:41;;;;;;;6.83;5.40;;;17.90;99.90;;;;;;4931522;29;20459;-73
2021/07/30 05:38:08;;;;;;;5.10;4.80;;;17.70;99.90;;;;;;4932096;29;20518;-73
2021/07/30 05:40:34;;;;;;;6.13;5.50;;;17.40;99.90;;;;;;4932841;29;20546;-71
2021/07/30 05:43:01;;;;;;;5.20;4.80;;;17.30;99.90;;;;;;4930971;29;20502;-73
2021/07/30 05:45:29;;;;;;;5.40;5.00;;;17.20;99.90;;;;;;4922131;29;20479;-72
2021/07/30 05:47:56;;;;;;;5.77;5.27;;;17.10;99.90;;;;;;4921274;29;20481;-72
2021/07/30 05:50:22;;;;;;;6.67;5.67;;;17.10;99.90;;;;;;4903501;29;20475;-72
2021/07/30 05:52:51;;;;;;;15.33;5.97;;;17.00;99.90;;;;;;4911643;29;20463;-72
2021/07/30 05:55:18;;;;;;;6.17;5.70;;;17.00;99.90;;;;;;4920693;29;20534;-72
2021/07/30 05:57:45;;;;;;;4.97;4.57;;;17.20;99.90;;;;;;4921669;29;20466;-72
2021/07/30 06:00:13;;;;;;;6.47;5.97;;;17.20;99.90;;;;;;4921097;29;20478;-72
2021/07/30 06:02:41;;;;;;;6.67;6.07;;;17.40;99.90;;;;;;4920998;29;20486;-72
2021/07/30 06:05:09;;;;;;;5.90;5.00;;;17.60;99.90;;;;;;4920697;29;20462;-73
2021/07/30 06:07:36;;;;;;;8.53;5.10;;;18.00;99.90;;;;;;4921490;29;20463;-72
2021/07/30 06:10:03;;;;;;;5.40;5.00;;;18.70;99.90;;;;;;4921261;29;20467;-72
2021/07/30 06:12:30;;;;;;;4.80;4.30;;;19.50;99.90;;;;;;4918549;29;20482;-73
2021/07/30 06:14:56;;;;;;;4.60;4.20;;;20.30;99.90;;;;;;4920614;29;20525;-73
2021/07/30 06:17:23;;;;;;;4.53;4.27;;;20.80;99.90;;;;;;4920629;29;20486;-71
2021/07/30 06:19:52;;;;;;;4.67;4.20;;;21.20;99.90;;;;;;4920255;29;20467;-73
2021/07/30 06:22:19;;;;;;;5.10;4.67;;;21.80;99.90;;;;;;4920043;29;20485;-72
2021/07/30 06:24:46;;;;;;;5.37;3.70;;;21.90;99.90;;;;;;4919909;29;20495;-72
2021/07/30 06:27:15;;;;;;;4.90;4.40;;;22.30;99.90;;;;;;4920036;29;20505;-72
2021/07/30 06:29:41;;;;;;;3.67;3.57;;;22.80;99.90;;;;;;4908054;29;20470;-72
2021/07/30 06:32:08;;;;;;;3.90;3.70;;;22.90;99.90;;;;;;4919562;29;20489;-73
2021/07/30 06:34:35;;;;;;;5.63;3.97;;;23.10;99.90;;;;;;4921904;29;20471;-72
2021/07/30 06:37:03;;;;;;;4.43;4.03;;;23.50;99.90;;;;;;4923753;29;20468;-72
2021/07/30 06:39:30;;;;;;;5.33;4.83;;;23.70;99.90;;;;;;4922384;29;20478;-73
2021/07/30 06:41:57;;;;;;;3.73;3.37;;;23.90;99.90;;;;;;4923092;29;20484;-73
2021/07/30 06:44:23;;;;;;;4.33;3.93;;;23.80;99.90;;;;;;4923328;29;20468;-73
2021/07/30 06:46:50;;;;;;;3.83;3.63;;;24.00;99.90;;;;;;4922306;29;20592;-73
2021/07/30 06:49:17;;;;;;;4.33;3.87;;;24.30;99.90;;;;;;4922280;29;20477;-73
2021/07/30 06:51:44;;;;;;;4.20;3.80;;;24.30;99.90;;;;;;4921611;29;20485;-72
2021/07/30 06:54:12;;;;;;;4.20;3.90;;;24.40;99.90;;;;;;4922067;29;20467;-73
2021/07/30 06:56:39;;;;;;;4.50;3.47;;;24.70;99.90;;;;;;4925384;29;20458;-74
2021/07/30 06:59:06;;;;;;;7.23;4.50;;;25.00;99.90;;;;;;4922769;29;20483;-74
2021/07/30 07:01:32;;;;;;;4.23;3.80;;;25.00;99.90;;;;;;4920240;29;20513;-74
2021/07/30 07:03:59;;;;;;;3.67;3.50;;;24.80;99.90;;;;;;4916399;29;20549;-73
2021/07/30 07:06:26;;;;;;;4.37;4.00;;;25.30;99.90;;;;;;4916073;29;20579;-74
2021/07/30 07:08:53;;;;;;;4.23;3.93;;;25.40;99.90;;;;;;4916965;29;20824;-74
2021/07/30 07:11:21;;;;;;;4.13;3.73;;;25.60;99.90;;;;;;4915923;29;20510;-73
2021/07/30 07:13:47;;;;;;;4.30;3.73;;;25.20;99.90;;;;;;4916188;29;20540;-74
2021/07/30 07:16:19;;;;;;;4.03;3.57;;;24.80;99.90;;;;;;4916274;29;20472;-72
2021/07/30 07:18:45;;;;;;;3.93;3.60;;;24.90;99.90;;;;;;4908465;29;20468;-73
2021/07/30 07:21:13;;;;;;;3.77;3.50;;;25.00;99.90;;;;;;4916777;29;20491;-72
2021/07/30 07:23:40;;;;;;;3.60;3.40;;;25.50;99.90;;;;;;4917829;29;20556;-73
2021/07/30 07:26:06;;;;;;;3.90;3.60;;;25.70;99.90;;;;;;4919220;29;20492;-72
2021/07/30 07:28:34;;;;;;;4.20;3.70;;;25.60;99.90;;;;;;4923353;29;20482;-72
2021/07/30 07:31:01;;;;;;;4.00;3.80;;;25.60;99.90;;;;;;4920136;29;20984;-72
2021/07/30 07:33:28;;;;;;;3.13;3.00;;;25.50;99.90;;;;;;4920315;29;20571;-72
2021/07/30 07:35:55;;;;;;;3.80;3.60;;;25.80;99.90;;;;;;4914332;29;20481;-73
2021/07/30 07:38:21;;;;;;;4.00;3.80;;;26.00;99.90;;;;;;4920222;29;20529;-72
2021/07/30 07:40:48;;;;;;;3.60;3.30;;;26.40;99.90;;;;;;4920701;29;20555;-73
2021/07/30 07:43:15;;;;;;;3.67;3.47;;;26.40;99.80;;;;;;4921277;29;20964;-72
2021/07/30 07:45:44;;;;;;;3.13;3.00;;;26.10;99.40;;;;;;4920914;29;20468;-72
2021/07/30 07:48:10;;;;;;;3.50;3.30;;;26.50;99.50;;;;;;4920802;29;20500;-73
2021/07/30 07:50:37;;;;;;;4.30;3.90;;;26.20;98.60;;;;;;4916512;29;20506;-73
2021/07/30 07:53:13;;;;;;;3.90;3.50;;;25.80;99.20;;;;;;4920250;29;20473;-72
2021/07/30 07:55:40;;;;;;;3.87;3.67;;;25.60;99.70;;;;;;4920570;29;20464;-73
2021/07/30 07:58:06;;;;;;;3.73;3.50;;;25.50;99.80;;;;;;4920695;29;20478;-72
2021/07/30 08:00:33;;;;;;;3.13;3.03;;;25.60;99.50;;;;;;4920415;29;20498;-72
2021/07/30 08:03:01;;;;;;;6.63;3.60;;;25.80;99.60;;;;;;4919863;29;20557;-74
2021/07/30 08:05:28;;;;;;;5.83;4.03;;;25.90;99.20;;;;;;4915641;29;20467;-72
2021/07/30 08:07:55;;;;;;;4.87;4.47;;;25.70;98.70;;;;;;4919916;29;20852;-72
2021/07/30 08:10:22;;;;;;;4.50;3.90;;;25.40;98.60;;;;;;4918438;29;20492;-73
2021/07/30 08:12:48;;;;;;;3.83;3.73;;;24.80;98.40;;;;;;4919165;29;20476;-74
2021/07/30 08:15:15;;;;;;;3.90;3.65;;;24.20;99.00;;;;;;4919248;29;20470;-74
2021/07/30 08:17:42;;;;;;;4.07;3.70;;;23.80;98.80;;;;;;4918470;29;20612;-74
2021/07/30 08:20:11;;;;;;;3.17;3.00;;;23.40;99.40;;;;;;4918102;29;20470;-74
2021/07/30 08:22:41;;;;;;;3.13;2.97;;;23.10;99.90;;;;;;4918427;29;20497;-73
2021/07/30 08:25:07;;;;;;;3.27;3.07;;;22.90;99.90;;;;;;4918742;29;20653;-73
2021/07/30 08:27:35;;;;;;;3.00;2.90;;;22.90;99.90;;;;;;4919062;29;20554;-75
2021/07/30 08:30:02;;;;;;;4.03;3.27;;;22.70;99.90;;;;;;4919073;29;20465;-74
2021/07/30 08:32:29;;;;;;;3.70;3.50;;;22.50;99.90;;;;;;4918566;29;20614;-74
2021/07/30 08:34:55;;;;;;;5.03;4.50;;;22.40;99.90;;;;;;4918258;29;20503;-73
2021/07/30 08:37:24;;;;;;;7.00;3.50;;;22.20;99.90;;;;;;4918151;29;21013;-74
2021/07/30 08:39:50;;;;;;;5.83;3.70;;;22.20;99.90;;;;;;4918612;29;20911;-72
2021/07/30 08:42:18;;;;;;;4.10;3.27;;;22.20;99.90;;;;;;4918488;29;20528;-73
2021/07/30 08:44:45;;;;;;;3.90;3.37;;;22.20;99.90;;;;;;4919002;29;20494;-74
2021/07/30 08:47:13;;;;;;;3.43;3.23;;;22.30;99.90;;;;;;4918497;29;20858;-73
2021/07/30 08:49:40;;;;;;;3.97;3.67;;;22.20;99.90;;;;;;4917977;29;20463;-73
2021/07/30 08:52:10;;;;;;;3.40;3.20;;;22.10;99.90;;;;;;4917839;29;20486;-72
2021/07/30 08:54:38;;;;;;;3.60;3.30;;;22.10;99.90;;;;;;4917969;29;21035;-72
2021/07/30 08:57:09;;;;;;;3.67;3.47;;;22.10;99.90;;;;;;4918773;29;20462;-72
2021/07/30 08:59:38;;;;;;;3.50;3.30;;;22.20;99.90;;;;;;4919307;29;20494;-73
2021/07/30 09:02:05;;;;;;;3.20;3.10;;;22.30;99.90;;;;;;4918615;29;20498;-74
2021/07/30 09:04:32;;;;;;;5.90;3.50;;;22.40;99.90;;;;;;4918471;29;20478;-73
2021/07/30 09:07:02;;;;;;;5.20;2.97;;;22.30;99.90;;;;;;4916898;29;20557;-74
2021/07/30 09:09:29;;;;;;;5.63;2.77;;;22.40;99.90;;;;;;4916945;29;20465;-74
2021/07/30 09:11:59;;;;;;;3.27;3.07;;;22.30;99.90;;;;;;4916998;29;20894;-73
2021/07/30 09:14:34;;;;;;;3.37;3.10;;;22.20;99.90;;;;;;4916737;29;20521;-74
2021/07/30 09:17:01;;;;;;;3.00;2.90;;;22.20;99.70;;;;;;4914189;29;20510;-74
2021/07/30 09:19:28;;;;;;;2.40;2.30;;;22.10;99.90;;;;;;4911311;29;20486;-73
2021/07/30 09:22:07;;;;;;;3.20;2.93;;;22.10;99.90;;;;;;4917106;29;20494;-73
2021/07/30 09:24:35;;;;;;;3.03;2.83;;;22.10;99.70;;;;;;4917091;29;20963;-73
2021/07/30 09:27:04;;;;;;;3.13;2.83;;;22.10;99.90;;;;;;4916691;29;20495;-73
2021/07/30 09:29:33;;;;;;;3.57;3.30;;;22.10;99.60;;;;;;4916346;29;20542;-72
2021/07/30 09:32:01;;;;;;;4.93;3.10;;;22.10;99.60;;;;;;4916312;29;20998;-73
2021/07/30 09:34:29;;;;;;;2.80;2.70;;;22.10;99.40;;;;;;4917188;29;20489;-73
2021/07/30 09:36:58;;;;;;;2.97;2.80;;;22.20;99.90;;;;;;4916115;29;20455;-73
2021/07/30 09:39:26;;;;;;;2.87;2.77;;;22.20;98.50;;;;;;4916971;29;20869;-71
2021/07/30 09:42:04;;;;;;;3.00;2.80;;;22.20;99.10;;;;;;4916244;29;20514;-72
2021/07/30 09:44:33;;;;;;;2.70;2.60;;;22.30;99.30;;;;;;4917030;29;20473;-73
2021/07/30 09:47:19;;;;;;;3.10;2.90;;;22.20;98.70;;;;;;4917259;29;20546;-73
2021/07/30 09:49:49;;;;;;;4.10;2.93;;;22.30;98.90;;;;;;4916166;29;20657;-73
2021/07/30 09:52:18;;;;;;;3.00;2.80;;;22.30;98.50;;;;;;4916568;29;20487;-72
2021/07/30 09:54:56;;;;;;;5.43;2.70;;;22.30;98.10;;;;;;4916603;29;20474;-72
2021/07/30 09:57:24;;;;;;;2.83;2.73;;;22.30;99.00;;;;;;4917022;29;20462;-72
2021/07/30 09:59:56;;;;;;;3.97;3.30;;;22.20;99.90;;;;;;4916761;29;20478;-72
2021/07/30 10:02:22;;;;;;;3.30;3.00;;;22.30;99.90;;;;;;4916554;29;20490;-72
2021/07/30 10:04:51;;;;;;;3.40;2.60;;;22.40;99.90;;;;;;4918235;29;20463;-73
2021/07/30 10:07:20;;;;;;;4.23;3.37;;;22.50;99.70;;;;;;4909601;29;20499;-73
2021/07/30 10:09:51;;;;;;;8.30;3.13;;;22.60;99.60;;;;;;4901362;29;20531;-74
2021/07/30 10:12:18;;;;;;;3.27;2.97;;;22.60;99.80;;;;;;4916924;29;20582;-74
2021/07/30 10:14:46;;;;;;;2.70;2.60;;;22.50;99.70;;;;;;4918568;29;20939;-73
2021/07/30 10:17:16;;;;;;;2.40;2.30;;;22.60;99.60;;;;;;4917951;29;20463;-74
2021/07/30 10:19:45;;;;;;;2.97;2.63;;;22.70;98.20;;;;;;4920216;29;20462;-74
2021/07/30 10:22:14;;;;;;;2.67;2.67;;;22.80;98.20;;;;;;4917572;29;20545;-74
2021/07/30 10:24:46;;;;;;;2.87;2.60;;;22.80;98.00;;;;;;4914837;29;20506;-73
2021/07/30 10:27:14;;;;;;;2.97;2.50;;;22.90;98.50;;;;;;4917190;29;20549;-73
2021/07/30 10:30:00;;;;;;;3.10;2.70;;;23.00;98.20;;;;;;4910174;29;21001;-73
2021/07/30 10:32:44;;;;;;;2.70;2.60;;;23.10;98.60;;;;;;4917780;29;20553;-74
2021/07/30 10:35:12;;;;;;;2.67;2.57;;;23.20;98.50;;;;;;4908486;29;20490;-74
2021/07/30 10:37:41;;;;;;;2.70;2.27;;;23.20;98.20;;;;;;4918139;29;20860;-73
2021/07/30 10:40:20;;;;;;;3.00;2.90;;;23.30;98.20;;;;;;4899269;29;20499;-73
2021/07/30 10:43:03;;;;;;;3.50;2.90;;;23.40;98.40;;;;;;4914931;29;20486;-75
2021/07/30 10:45:30;;;;;;;2.27;2.13;;;23.50;97.40;;;;;;4909267;29;20465;-74
2021/07/30 10:48:34;;;;;;;3.07;2.40;;;23.40;96.80;;;;;;4913009;29;20553;-72
2021/07/30 10:51:04;;;;;;;2.60;2.47;;;23.40;96.40;;;;;;4915339;29;20510;-72
2021/07/30 10:53:51;;;;;;;2.53;2.43;;;23.20;96.50;;;;;;4915960;29;20467;-71
2021/07/30 10:56:51;;;;;;;2.80;2.70;;;23.10;96.00;;;;;;4904842;29;20841;-72
2021/07/30 10:59:23;;;;;;;6.17;3.03;;;23.10;97.20;;;;;;4915673;29;20470;-73
2021/07/30 11:02:00;;;;;;;2.97;2.87;;;23.10;97.20;;;;;;4919187;29;20577;-73
2021/07/30 11:04:27;;;;;;;3.20;3.00;;;23.20;97.00;;;;;;4907848;29;20470;-73
2021/07/30 11:06:59;;;;;;;3.97;3.67;;;23.30;97.60;;;;;;4918857;29;20491;-73
2021/07/30 11:09:27;;;;;;;3.37;3.20;;;23.40;97.80;;;;;;4920442;29;20454;-73
2021/07/30 11:11:55;;;;;;;4.30;3.93;;;23.50;97.10;;;;;;4918959;29;20486;-72
2021/07/30 11:14:24;;;;;;;3.27;3.07;;;23.60;96.90;;;;;;4918639;29;20475;-72
2021/07/30 11:16:53;;;;;;;2.73;2.47;;;23.70;95.80;;;;;;4921795;29;20593;-72
2021/07/30 11:19:21;;;;;;;2.97;2.87;;;23.80;96.50;;;;;;4923667;29;20501;-74
2021/07/30 11:21:48;;;;;;;5.50;3.37;;;23.80;96.80;;;;;;4920549;29;20544;-74
2021/07/30 11:24:17;;;;;;;2.83;2.63;;;23.80;96.30;;;;;;4919671;29;20573;-73
2021/07/30 11:26:44;;;;;;;2.97;2.83;;;23.90;96.30;;;;;;4919530;29;20947;-74
2021/07/30 11:29:12;;;;;;;3.00;2.77;;;23.90;96.50;;;;;;4914054;29;20493;-73
2021/07/30 11:31:52;;;;;;;2.87;2.77;;;23.90;96.00;;;;;;4918185;29;20498;-72
2021/07/30 11:34:19;;;;;;;2.40;2.30;;;23.80;95.00;;;;;;4918466;29;20498;-72
2021/07/30 11:36:48;;;;;;;2.90;2.70;;;23.80;95.80;;;;;;4917409;29;20462;-72
2021/07/30 11:39:17;;;;;;;2.30;2.30;;;23.80;96.00;;;;;;4917840;29;20502;-72
2021/07/30 11:41:49;;;;;;;3.70;2.90;;;23.90;95.90;;;;;;4919320;29;20514;-72
2021/07/30 11:44:16;;;;;;;3.43;3.07;;;23.80;96.20;;;;;;4918113;29;20859;-72
2021/07/30 11:46:52;;;;;;;3.27;3.00;;;23.70;95.80;;;;;;4918843;29;20466;-73
2021/07/30 11:49:19;;;;;;;3.27;2.93;;;23.70;96.70;;;;;;4918345;29;20580;-73
2021/07/30 11:51:46;;;;;;;3.13;3.03;;;23.80;97.20;;;;;;4917850;29;21030;-73
2021/07/30 11:54:25;;;;;;;3.20;3.00;;;23.90;96.80;;;;;;4918209;29;20526;-72
2021/07/30 11:56:52;;;;;;;2.83;2.73;;;23.90;96.90;;;;;;4918983;29;20490;-72
2021/07/30 11:59:18;;;;;;;4.27;3.00;;;23.90;96.90;;;;;;4919767;29;20477;-72
2021/07/30 12:02:00;;;;;;;3.13;3.00;;;24.10;96.80;;;;;;4919166;29;20498;-72
2021/07/30 12:04:27;;;;;;;3.30;3.10;;;23.90;96.40;;;;;;4920033;29;20471;-72
2021/07/30 12:06:56;;;;;;;2.90;2.80;;;23.90;96.30;;;;;;4910796;29;20865;-71
2021/07/30 12:09:26;;;;;;;3.53;3.33;;;23.90;95.90;;;;;;4903245;29;20514;-73
2021/07/30 12:11:54;;;;;;;2.93;2.80;;;23.80;97.00;;;;;;4918381;29;20499;-71
2021/07/30 12:14:23;;;;;;;4.07;3.63;;;23.90;96.80;;;;;;4919432;29;20478;-72
2021/07/30 12:16:50;;;;;;;2.73;2.53;;;23.90;96.80;;;;;;4920123;29;20860;-73
2021/07/30 12:19:27;;;;;;;3.60;2.80;;;24.10;96.70;;;;;;4919217;29;20495;-73
2021/07/30 12:21:57;;;;;;;6.80;2.90;;;24.00;96.50;;;;;;4917278;29;20913;-73
2021/07/30 12:24:25;;;;;;;6.73;3.60;;;23.90;96.20;;;;;;4917326;29;20573;-72
2021/07/30 12:26:52;;;;;;;2.70;2.60;;;24.00;96.20;;;;;;4918157;29;20537;-72
2021/07/30 12:29:42;;;;;;;3.47;3.10;;;23.90;96.40;;;;;;4917908;29;20494;-73
2021/07/30 12:32:18;;;;;;;4.43;2.87;;;23.90;96.60;;;;;;4917167;29;20486;-72
2021/07/30 12:34:58;;;;;;;3.10;3.00;;;23.90;96.30;;;;;;4917934;29;20565;-71
2021/07/30 12:37:26;;;;;;;3.63;3.43;;;23.90;97.00;;;;;;4921338;29;20470;-72
2021/07/30 12:39:55;;;;;;;4.00;3.37;;;24.00;97.20;;;;;;4919055;29;20484;-73
2021/07/30 12:42:24;;;;;;;2.90;2.80;;;24.10;96.60;;;;;;4921011;29;20493;-74
2021/07/30 12:45:11;;;;;;;2.93;2.80;;;24.10;96.40;;;;;;4920666;29;20477;-73
2021/07/30 12:47:40;;;;;;;3.47;3.17;;;24.10;96.80;;;;;;4919219;29;20522;-73
2021/07/30 12:50:28;;;;;;;4.20;3.50;;;24.10;97.00;;;;;;4921246;29;20466;-72
2021/07/30 12:53:09;;;;;;;3.03;2.90;;;24.10;97.20;;;;;;4921261;29;20466;-73
2021/07/30 12:56:00;;;;;;;3.77;3.57;;;24.10;97.10;;;;;;4917968;29;20915;-71
2021/07/30 12:58:29;;;;;;;3.40;3.20;;;24.10;97.20;;;;;;4909055;29;20553;-72
2021/07/30 13:00:57;;;;;;;3.53;3.23;;;24.20;97.70;;;;;;4915982;29;21242;-71
2021/07/30 13:03:26;;;;;;;3.37;3.07;;;24.20;97.10;;;;;;4906263;29;20582;-71
2021/07/30 13:05:54;;;;;;;3.80;3.13;;;24.10;97.20;;;;;;4917104;29;20935;-72
2021/07/30 13:08:22;;;;;;;3.63;3.33;;;24.20;97.80;;;;;;4917340;29;20486;-70
2021/07/30 13:10:49;;;;;;;4.30;2.90;;;24.20;97.60;;;;;;4917067;29;20498;-71
2021/07/30 13:13:18;;;;;;;3.67;3.57;;;24.30;97.80;;;;;;4917560;29;20818;-71
2021/07/30 13:15:46;;;;;;;6.73;3.60;;;24.30;98.10;;;;;;4917915;29;20462;-70
2021/07/30 13:18:13;;;;;;;3.40;3.23;;;24.40;98.60;;;;;;4916971;29;20971;-71
2021/07/30 13:20:40;;;;;;;4.03;3.73;;;24.50;98.30;;;;;;4916488;29;20860;-69
2021/07/30 13:23:07;;;;;;;3.90;3.70;;;24.50;98.70;;;;;;4915838;29;20557;-70
2021/07/30 13:25:35;;;;;;;3.50;3.00;;;24.50;98.00;;;;;;4916043;29;20466;-71
2021/07/30 13:28:03;;;;;;;3.43;2.80;;;24.50;98.10;;;;;;4906834;29;20599;-70
2021/07/30 13:30:32;;;;;;;3.37;3.03;;;24.50;98.10;;;;;;4915089;29;20570;-75
2021/07/30 13:33:01;;;;;;;3.43;3.23;;;24.50;98.00;;;;;;4917042;29;20462;-72
2021/07/30 13:35:28;;;;;;;3.40;3.10;;;24.50;98.20;;;;;;4916553;29;20466;-71
2021/07/30 13:37:55;;;;;;;3.40;3.20;;;24.50;98.40;;;;;;4916860;29;20482;-72
2021/07/30 13:40:22;;;;;;;3.23;3.13;;;24.60;98.20;;;;;;4916735;29;20458;-70
2021/07/30 13:42:48;;;;;;;7.03;3.03;;;24.60;97.70;;;;;;4917521;29;20853;-72
2021/07/30 13:45:15;;;;;;;6.50;3.20;;;24.70;98.40;;;;;;4918879;29;20837;-70
2021/07/30 13:47:43;;;;;;;3.20;3.00;;;24.70;98.10;;;;;;4917915;29;20493;-72
2021/07/30 13:50:11;;;;;;;4.63;2.80;;;24.80;98.20;;;;;;4918600;29;20486;-72
2021/07/30 13:52:37;;;;;;;3.90;2.97;;;24.90;98.90;;;;;;4918712;29;20470;-73
2021/07/30 13:55:05;;;;;;;3.00;2.80;;;24.90;98.10;;;;;;4919422;29;20473;-72
2021/07/30 13:57:33;;;;;;;3.73;3.40;;;24.90;98.10;;;;;;4920095;29;20982;-72
2021/07/30 14:00:03;;;;;;;3.23;3.03;;;24.80;98.40;;;;;;4919484;29;20470;-70
2021/07/30 14:02:30;;;;;;;3.37;3.23;;;24.90;98.60;;;;;;4919361;29;20498;-72
2021/07/30 14:04:59;;;;;;;3.90;3.10;;;24.90;98.30;;;;;;4920046;29;20799;-72
2021/07/30 14:07:25;;;;;;;3.33;3.13;;;24.80;97.90;;;;;;4907511;29;20510;-72
2021/07/30 14:09:53;;;;;;;2.90;2.80;;;24.80;98.20;;;;;;4901669;29;20817;-72
2021/07/30 14:12:20;;;;;;;4.20;3.90;;;24.90;98.50;;;;;;4900128;29;20492;-73
2021/07/30 14:14:47;;;;;;;3.47;3.20;;;25.00;98.40;;;;;;4901052;29;20471;-73
2021/07/30 14:17:14;;;;;;;3.60;3.37;;;25.00;98.10;;;;;;4899934;29;20471;-72
2021/07/30 14:19:41;;;;;;;3.00;2.90;;;25.10;98.20;;;;;;4911277;29;20470;-73
2021/07/30 14:22:09;;;;;;;3.20;3.07;;;25.20;98.30;;;;;;4917980;29;20478;-71
2021/07/30 14:24:36;;;;;;;3.40;3.20;;;25.20;98.20;;;;;;4917924;29;20470;-71
2021/07/30 14:27:03;;;;;;;3.67;3.37;;;25.30;98.50;;;;;;4918690;29;20519;-72
2021/07/30 14:29:30;;;;;;;3.27;3.07;;;25.50;98.20;;;;;;4918168;29;20490;-72
2021/07/30 14:31:57;;;;;;;3.30;3.17;;;25.70;98.10;;;;;;4918234;29;20502;-72
2021/07/30 14:34:24;;;;;;;2.67;2.60;;;26.00;98.40;;;;;;4917326;29;20574;-73
2021/07/30 14:36:51;;;;;;;3.20;3.10;;;26.00;97.40;;;;;;4915872;29;20875;-72
2021/07/30 14:39:23;;;;;;;2.97;2.87;;;26.00;97.30;;;;;;4915653;29;21165;-73
2021/07/30 14:41:50;;;;;;;4.07;3.70;;;25.80;97.30;;;;;;4917727;29;20532;-72
2021/07/30 14:44:19;;;;;;;3.60;3.30;;;25.60;97.90;;;;;;4918287;29;20482;-73
2021/07/30 14:46:46;;;;;;;3.10;3.00;;;25.50;98.50;;;;;;4919368;29;20467;-73
2021/07/30 14:49:14;;;;;;;3.90;3.10;;;25.50;98.60;;;;;;4916815;29;20885;-73
2021/07/30 14:51:41;;;;;;;3.60;3.33;;;25.50;98.20;;;;;;4916742;29;20486;-73
2021/07/30 14:54:09;;;;;;;2.73;2.63;;;25.50;98.60;;;;;;4916480;29;20481;-72
2021/07/30 14:56:38;;;;;;;4.07;3.43;;;25.40;98.50;;;;;;4916355;29;20533;-72
2021/07/30 14:59:05;;;;;;;3.47;3.20;;;25.40;98.70;;;;;;4916540;29;20542;-72
2021/07/30 15:01:33;;;;;;;3.97;3.20;;;25.30;99.00;;;;;;4915511;29;20609;-72
2021/07/30 15:04:00;;;;;;;2.93;2.73;;;25.30;98.90;;;;;;4916256;29;20469;-72
2021/07/30 15:06:27;;;;;;;3.23;3.03;;;25.30;98.90;;;;;;4915680;29;20882;-73
2021/07/30 15:08:54;;;;;;;3.77;3.33;;;25.30;99.00;;;;;;4914161;29;20491;-72
2021/07/30 15:11:20;;;;;;;3.60;3.50;;;25.40;99.10;;;;;;4914656;29;20620;-72
2021/07/30 15:13:48;;;;;;;4.13;3.37;;;25.40;99.20;;;;;;4915245;29;20950;-72
2021/07/30 15:16:15;;;;;;;9.67;3.50;;;25.40;99.10;;;;;;4915459;29;20951;-71
2021/07/30 15:18:41;;;;;;;3.47;3.17;;;25.30;98.90;;;;;;4916121;29;20472;-71
2021/07/30 15:21:12;;;;;;;3.53;3.20;;;25.40;99.30;;;;;;4914081;29;20502;-71
2021/07/30 15:23:39;;;;;;;7.93;3.63;;;25.50;98.90;;;;;;4915244;29;20557;-71
2021/07/30 15:26:06;;;;;;;2.50;2.40;;;25.50;99.20;;;;;;4914985;29;20470;-71
2021/07/30 15:28:33;;;;;;;3.20;3.00;;;25.40;98.60;;;;;;4910702;29;20486;-72
2021/07/30 15:31:04;;;;;;;3.00;3.00;;;25.30;99.10;;;;;;4915547;29;20821;-71
2021/07/30 15:33:31;;;;;;;4.77;3.80;;;25.20;99.40;;;;;;4915504;29;20526;-73
2021/07/30 15:36:08;;;;;;;4.87;3.47;;;25.20;99.20;;;;;;4915714;29;20462;-71
2021/07/30 15:38:35;;;;;;;3.63;3.30;;;25.30;99.40;;;;;;4914909;29;20820;-72
2021/07/30 15:41:01;;;;;;;3.30;3.10;;;25.40;99.10;;;;;;4908464;29;20491;-72
2021/07/30 15:43:28;;;;;;;3.30;3.20;;;25.60;99.30;;;;;;4915501;29;20879;-71
2021/07/30 15:45:55;;;;;;;3.60;3.40;;;25.60;99.20;;;;;;4915549;29;20574;-73
2021/07/30 15:48:23;;;;;;;3.27;3.10;;;25.80;99.00;;;;;;4914472;29;20486;-70
2021/07/30 15:50:50;;;;;;;3.10;3.00;;;25.80;98.50;;;;;;4919174;29;20589;-70
2021/07/30 15:53:17;;;;;;;3.30;3.07;;;25.90;98.90;;;;;;4918394;29;20458;-72
2021/07/30 15:55:43;;;;;;;3.40;3.10;;;26.20;98.40;;;;;;4914786;29;20577;-72
2021/07/30 15:58:10;;;;;;;3.20;3.00;;;26.30;98.40;;;;;;4929159;29;20491;-72
2021/07/30 16:00:37;;;;;;;3.33;3.20;;;26.30;97.90;;;;;;4929649;29;20497;-72
2021/07/30 16:03:03;;;;;;;4.33;3.93;;;26.30;97.70;;;;;;4931325;29;20454;-72
2021/07/30 16:05:31;;;;;;;6.47;3.93;;;26.20;98.30;;;;;;4928389;29;20529;-71
2021/07/30 16:07:58;;;;;;;3.90;3.10;;;26.20;97.80;;;;;;4904894;29;20952;-71
2021/07/30 16:10:25;;;;;;;4.00;3.27;;;26.20;98.20;;;;;;4919979;29;20492;-72
2021/07/30 16:12:53;;;;;;;3.30;3.17;;;26.30;98.20;;;;;;4918821;29;20533;-72
2021/07/30 16:15:20;;;;;;;3.47;3.37;;;26.40;98.10;;;;;;4918214;29;20492;-72
2021/07/30 16:17:46;;;;;;;3.37;3.23;;;26.30;98.20;;;;;;4918272;29;20470;-72
2021/07/30 16:20:14;;;;;;;3.67;3.50;;;26.00;98.30;;;;;;4918080;29;20466;-72
2021/07/30 16:22:43;;;;;;;3.50;3.17;;;26.00;99.00;;;;;;4918597;29;20837;-72
2021/07/30 16:25:10;;;;;;;3.43;3.20;;;26.00;98.90;;;;;;4917463;29;20470;-71
2021/07/30 16:27:37;;;;;;;4.23;4.00;;;25.90;99.10;;;;;;4918609;29;20471;-72
2021/07/30 16:30:05;;;;;;;5.67;4.13;;;25.80;99.60;;;;;;4918218;29;20491;-72
2021/07/30 16:32:32;;;;;;;3.50;3.40;;;25.80;99.40;;;;;;4917714;29;20490;-72
2021/07/30 16:34:58;;;;;;;3.87;3.67;;;25.70;99.60;;;;;;4915835;29;20540;-71
2021/07/30 16:37:25;;;;;;;3.77;3.60;;;25.70;99.60;;;;;;4917621;29;20482;-72
2021/07/30 16:39:54;;;;;;;3.43;3.20;;;25.70;99.60;;;;;;4913497;29;20550;-72
2021/07/30 16:42:21;;;;;;;3.50;3.30;;;25.80;99.30;;;;;;4918523;29;20490;-73
2021/07/30 16:44:47;;;;;;;5.50;3.60;;;25.90;98.90;;;;;;4909031;29;20787;-73
2021/07/30 16:47:14;;;;;;;6.77;3.60;;;26.00;98.60;;;;;;4904438;29;20462;-71
2021/07/30 16:49:41;;;;;;;3.20;3.00;;;25.80;98.80;;;;;;4918961;29;20489;-73
2021/07/30 16:52:08;;;;;;;3.20;3.00;;;25.60;99.80;;;;;;4905854;29;20999;-72
2021/07/30 16:54:35;;;;;;;3.53;3.20;;;25.50;99.90;;;;;;4917463;29;20467;-71
2021/07/30 16:57:04;;;;;;;4.00;3.70;;;25.50;99.80;;;;;;4916774;29;20470;-73